Time;durP1;ratioP1;P1;durP2;ratioP2;P2;SDS_P1;SDS_P2;PMS_P1;PMS_P2;Temp;Humidity;BMP_temperature;BMP_pressure;BME280_temperature;BME280_humidity;BME280_pressure;Samples;Min_cycle;Max_cycle;Signal;HPM_P1;HPM_P2
2022/02/08 00:02:01;;;;;;;6.03;2.20;;;3.80;99.90;;;;;;5003635;28;20073;-83
2022/02/08 00:04:29;;;;;;;7.93;2.43;;;3.80;99.90;;;;;;4989074;28;20086;-84
2022/02/08 00:07:01;;;;;;;4.43;1.30;;;3.80;99.90;;;;;;5000322;28;20065;-83
2022/02/08 00:09:30;;;;;;;;;;;3.90;99.90;;;;;;5004037;28;20055;-80
2022/02/08 00:11:57;;;;;;;30.93;13.00;;;3.90;99.90;;;;;;5004235;28;19928;-82
2022/02/08 00:14:23;;;;;;;37.73;17.70;;;3.90;99.90;;;;;;5005268;28;20046;-82
2022/02/08 00:16:50;;;;;;;11.67;3.53;;;3.90;99.90;;;;;;5005453;28;20090;-81
2022/02/08 00:19:17;;;;;;;5.23;1.70;;;3.90;99.90;;;;;;4980377;28;20106;-81
2022/02/08 00:21:46;;;;;;;1.90;0.90;;;3.90;99.90;;;;;;4997960;28;20085;-84
2022/02/08 00:24:14;;;;;;;7.53;1.97;;;3.90;99.90;;;;;;5004577;28;20097;-83
2022/02/08 00:26:40;;;;;;;8.97;2.13;;;3.80;99.90;;;;;;4994429;28;20070;-82
2022/02/08 00:29:06;;;;;;;3.37;1.37;;;3.90;99.90;;;;;;4990154;28;20144;-82
2022/02/08 00:31:50;;;;;;;3.70;1.53;;;3.90;99.90;;;;;;4998437;28;20380;-83
2022/02/08 00:34:17;;;;;;;2.63;0.83;;;3.80;99.90;;;;;;4989485;28;20054;-83
2022/02/08 00:37:07;;;;;;;14.00;1.97;;;3.80;99.90;;;;;;4979533;28;20054;-84
2022/02/08 00:40:14;;;;;;;10.07;3.20;;;3.90;99.90;;;;;;4978906;28;20101;-83
2022/02/08 00:43:09;;;;;;;12.50;1.67;;;3.90;99.90;;;;;;4945528;28;20058;-84
2022/02/08 00:46:13;;;;;;;6.40;1.63;;;3.80;99.90;;;;;;4976050;28;20120;-83
2022/02/08 00:48:42;;;;;;;7.30;1.90;;;3.80;99.90;;;;;;4976503;28;20131;-84
2022/02/08 00:51:12;;;;;;;13.03;1.53;;;3.70;99.90;;;;;;4975004;28;20059;-84
2022/02/08 00:53:38;;;;;;;9.43;2.17;;;3.60;99.90;;;;;;4974528;28;20061;-84
2022/02/08 00:56:06;;;;;;;6.13;1.47;;;3.60;99.90;;;;;;4966048;28;20118;-84
2022/02/08 00:58:35;;;;;;;6.90;1.67;;;3.70;99.90;;;;;;4994797;28;20072;-84
2022/02/08 01:01:02;;;;;;;8.10;2.00;;;3.70;99.90;;;;;;4997196;28;20058;-84
2022/02/08 01:03:28;;;;;;;11.67;2.23;;;3.70;99.90;;;;;;4987144;28;20059;-82
2022/02/08 01:06:04;;;;;;;9.80;1.57;;;3.70;99.90;;;;;;4978237;28;20046;-82
2022/02/08 01:08:32;;;;;;;3.00;1.73;;;3.70;99.90;;;;;;4973854;28;20437;-83
2022/02/08 01:11:12;;;;;;;2.47;1.60;;;3.70;99.90;;;;;;4974689;28;20059;-84
2022/02/08 01:13:43;;;;;;;8.40;1.20;;;3.70;99.90;;;;;;4973459;28;20051;-83
2022/02/08 01:16:10;;;;;;;4.82;1.48;;;3.80;99.90;;;;;;4972471;28;20050;-83
2022/02/08 01:18:40;;;;;;;9.63;0.97;;;3.70;99.90;;;;;;4977480;28;20063;-83
2022/02/08 01:21:07;;;;;;;4.60;1.77;;;3.70;99.90;;;;;;4985759;28;20058;-82
2022/02/08 01:23:33;;;;;;;7.07;1.67;;;3.70;99.90;;;;;;4996572;28;20065;-82
2022/02/08 01:26:07;;;;;;;5.67;1.37;;;3.70;99.90;;;;;;4996677;28;20058;-83
2022/02/08 01:28:41;;;;;;;3.30;1.30;;;3.70;99.90;;;;;;4982141;28;20078;-82
2022/02/08 01:31:11;;;;;;;4.77;2.10;;;3.80;99.90;;;;;;4988106;28;20124;-82
2022/02/08 01:34:08;;;;;;;10.77;1.40;;;3.70;99.90;;;;;;4984476;28;20067;-81
2022/02/08 01:36:42;;;;;;;4.07;1.20;;;3.70;99.90;;;;;;4976326;28;20145;-82
2022/02/08 01:39:18;;;;;;;4.33;1.23;;;3.80;99.90;;;;;;4976702;28;20074;-81
2022/02/08 01:42:21;;;;;;;1.60;1.33;;;3.80;99.90;;;;;;4976713;28;20112;-80
2022/02/08 01:45:02;;;;;;;1.20;1.03;;;3.80;99.90;;;;;;4989013;28;20078;-81
2022/02/08 01:47:31;;;;;;;11.43;1.40;;;3.80;99.90;;;;;;4989798;28;20089;-81
2022/02/08 01:50:01;;;;;;;1.43;0.63;;;3.80;99.90;;;;;;4986357;28;20051;-81
2022/02/08 01:52:27;;;;;;;5.30;1.33;;;3.80;99.90;;;;;;4976780;28;20082;-80
2022/02/08 01:54:54;;;;;;;1.97;1.33;;;3.80;99.90;;;;;;4976003;28;20063;-81
2022/02/08 01:57:21;;;;;;;5.57;0.90;;;3.80;99.90;;;;;;4976266;28;20071;-79
2022/02/08 01:59:48;;;;;;;6.23;1.60;;;3.80;99.90;;;;;;4975769;28;20070;-82
2022/02/08 02:02:14;;;;;;;4.43;1.23;;;3.70;99.90;;;;;;4993570;28;20389;-81
2022/02/08 02:04:41;;;;;;;2.33;0.93;;;3.70;99.90;;;;;;4994749;28;20065;-81
2022/02/08 02:07:07;;;;;;;5.43;1.00;;;3.70;99.90;;;;;;4995105;28;20070;-81
2022/02/08 02:09:45;;;;;;;5.30;1.23;;;3.80;99.90;;;;;;4983626;28;20050;-81
2022/02/08 02:12:12;;;;;;;2.60;0.90;;;3.80;99.90;;;;;;4974084;28;20064;-82
2022/02/08 02:14:40;;;;;;;8.67;1.53;;;3.80;99.90;;;;;;4958879;28;20055;-82
2022/02/08 02:17:08;;;;;;;3.23;1.50;;;3.70;99.90;;;;;;4976696;28;20062;-83
2022/02/08 02:19:36;;;;;;;3.10;0.77;;;3.70;99.90;;;;;;4965149;28;20058;-83
2022/02/08 02:22:04;;;;;;;5.20;1.50;;;3.70;99.90;;;;;;4993808;28;20058;-82
2022/02/08 02:24:31;;;;;;;2.07;1.13;;;3.60;99.90;;;;;;4975930;28;20058;-82
2022/02/08 02:26:59;;;;;;;10.73;2.07;;;3.50;99.90;;;;;;4976248;28;20967;-82
2022/02/08 02:29:28;;;;;;;3.63;0.93;;;3.50;99.90;;;;;;4996226;28;20057;-81
2022/02/08 02:31:55;;;;;;;4.33;1.07;;;3.50;99.90;;;;;;5011357;28;20488;-81
2022/02/08 02:34:22;;;;;;;5.43;1.87;;;3.50;99.90;;;;;;4997335;28;20558;-82
2022/02/08 02:36:49;;;;;;;5.07;0.97;;;3.40;99.90;;;;;;4978176;28;20408;-82
2022/02/08 02:39:15;;;;;;;4.20;1.20;;;3.40;99.90;;;;;;4984934;28;20551;-82
2022/02/08 02:41:44;;;;;;;5.43;1.70;;;3.40;99.90;;;;;;4995813;28;20070;-82
2022/02/08 02:44:11;;;;;;;4.90;1.17;;;3.30;99.90;;;;;;4995693;28;20066;-82
2022/02/08 02:46:38;;;;;;;7.20;1.33;;;3.30;99.90;;;;;;4985731;28;20059;-81
2022/02/08 02:49:04;;;;;;;2.73;0.97;;;3.30;99.90;;;;;;4975962;28;20058;-82
2022/02/08 02:51:32;;;;;;;2.57;0.90;;;3.20;99.90;;;;;;4991859;28;20516;-80
2022/02/08 02:53:59;;;;;;;8.60;1.23;;;3.10;99.90;;;;;;4990886;28;20113;-81
2022/02/08 02:56:25;;;;;;;0.60;0.40;;;3.10;99.90;;;;;;4977754;28;20055;-83
2022/02/08 02:58:59;;;;;;;2.50;1.27;;;3.10;99.90;;;;;;4976637;28;20137;-83
2022/02/08 03:01:31;;;;;;;5.83;0.87;;;3.10;99.90;;;;;;4977610;28;20061;-83
2022/02/08 03:04:08;;;;;;;1.15;1.15;;;3.00;99.90;;;;;;4984703;28;20066;-82
2022/02/08 03:17:41;;;;;;;5.20;1.27;;;3.00;99.90;;;;;;4992259;28;20129;-82
2022/02/08 03:20:08;;;;;;;5.83;1.87;;;3.00;99.90;;;;;;4978794;28;20113;-81
2022/02/08 03:22:34;;;;;;;4.33;1.13;;;3.00;99.90;;;;;;4985135;28;20512;-83
2022/02/08 03:25:01;;;;;;;4.23;1.23;;;3.00;99.90;;;;;;4956963;28;20059;-81
2022/02/08 03:27:27;;;;;;;7.60;3.47;;;3.00;99.90;;;;;;4968788;28;20125;-84
2022/02/08 03:29:53;;;;;;;1.23;0.63;;;3.00;99.90;;;;;;4978548;28;20055;-82
2022/02/08 03:32:22;;;;;;;4.63;1.73;;;3.10;99.90;;;;;;4988147;28;20065;-81
2022/02/08 03:34:48;;;;;;;10.43;2.07;;;3.00;99.90;;;;;;4991733;28;20046;-81
2022/02/08 03:37:14;;;;;;;4.53;1.40;;;2.90;99.90;;;;;;4958208;28;20101;-87
2022/02/08 03:39:43;;;;;;;21.10;10.93;;;2.90;99.90;;;;;;4974728;28;21329;-82
2022/02/08 03:42:17;;;;;;;5.47;3.87;;;2.90;99.90;;;;;;4995264;28;20050;-81
2022/02/08 03:44:46;;;;;;;4.77;1.57;;;2.90;99.90;;;;;;4975287;28;20375;-82
2022/02/08 03:47:16;;;;;;;6.13;1.43;;;3.00;99.90;;;;;;4982961;28;20117;-81
2022/02/08 03:49:42;;;;;;;2.40;1.97;;;2.90;99.90;;;;;;4985873;28;20505;-82
2022/02/08 03:52:08;;;;;;;3.83;1.10;;;2.80;99.90;;;;;;4989953;28;20561;-83
2022/02/08 03:54:35;;;;;;;9.27;1.73;;;2.90;99.90;;;;;;4980870;28;20124;-82
2022/02/08 03:57:06;;;;;;;10.40;1.93;;;2.80;99.90;;;;;;4984402;28;21402;-81
2022/02/08 03:59:32;;;;;;;2.77;2.27;;;2.90;99.90;;;;;;4985698;28;20130;-83
2022/02/08 04:02:20;;;;;;;5.87;2.10;;;2.90;99.90;;;;;;4992011;28;20046;-81
2022/02/08 04:04:55;;;;;;;2.87;1.30;;;2.90;99.90;;;;;;4994979;28;20046;-81
2022/02/08 04:07:25;;;;;;;7.47;2.20;;;2.80;99.90;;;;;;4996765;28;20054;-81
2022/02/08 04:09:58;;;;;;;4.93;1.40;;;2.80;99.90;;;;;;4996504;28;20053;-82
2022/02/08 04:12:36;;;;;;;7.33;2.17;;;2.80;99.90;;;;;;4947958;28;20067;-83
2022/02/08 04:17:59;;;;;;;4.67;1.73;;;2.90;99.90;;;;;;4978925;28;20105;-83
2022/02/08 04:32:04;;;;;;;2.10;1.53;;;3.00;99.90;;;;;;4924668;29;20075;-83
2022/02/08 04:34:45;;;;;;;5.63;2.00;;;3.00;99.90;;;;;;4921790;29;20074;-83
2022/02/08 04:43:05;;;;;;;1.87;1.67;;;3.00;99.90;;;;;;4962430;28;20058;-82
2022/02/08 04:45:48;;;;;;;2.13;1.57;;;3.00;99.90;;;;;;4964090;28;20043;-81
2022/02/08 04:48:26;;;;;;;7.47;2.10;;;3.00;99.90;;;;;;4980860;28;20108;-85
2022/02/08 04:51:05;;;;;;;5.40;1.20;;;3.00;99.90;;;;;;4973229;28;20067;-87
2022/02/08 04:53:41;;;;;;;4.70;1.30;;;3.10;99.90;;;;;;4987591;28;20157;-89
2022/02/08 04:56:15;;;;;;;8.30;2.50;;;3.10;99.90;;;;;;4995251;28;20047;-90
2022/02/08 04:58:48;;;;;;;4.83;3.13;;;3.10;99.90;;;;;;4994351;28;20067;-91
2022/02/08 05:01:20;;;;;;;8.43;1.83;;;3.10;99.90;;;;;;4991285;28;20046;-89
2022/02/08 05:43:14;;;;;;;3.23;1.70;;;3.30;99.90;;;;;;4991737;28;20153;-92
2022/02/08 05:48:24;;;;;;;7.70;2.80;;;3.20;99.90;;;;;;4996106;28;20386;-83
2022/02/08 05:50:58;;;;;;;9.00;2.50;;;3.10;99.90;;;;;;5000322;28;20050;-84
2022/02/08 05:53:30;;;;;;;2.03;1.30;;;3.10;99.90;;;;;;4973547;28;20481;-82
2022/02/08 05:55:56;;;;;;;6.60;1.60;;;3.10;99.90;;;;;;5003016;28;20042;-84
2022/02/08 05:58:26;;;;;;;3.53;1.77;;;3.10;99.90;;;;;;5001418;28;20070;-85
2022/02/08 06:00:53;;;;;;;8.47;1.87;;;3.00;99.90;;;;;;4999314;28;20065;-86
2022/02/08 06:03:23;;;;;;;3.87;2.27;;;3.10;99.90;;;;;;5002682;28;20108;-88
2022/02/08 06:05:52;;;;;;;6.00;1.67;;;3.00;99.90;;;;;;5005387;28;20051;-85
2022/02/08 06:08:19;;;;;;;5.97;2.20;;;3.00;99.90;;;;;;5002255;28;20050;-88
2022/02/08 06:10:50;;;;;;;5.00;1.70;;;3.10;99.90;;;;;;5002300;28;20046;-89
2022/02/08 06:16:06;;;;;;;2.03;1.83;;;3.20;99.90;;;;;;5009308;28;20125;-86
2022/02/08 06:26:52;;;;;;;7.20;3.00;;;3.20;99.90;;;;;;4990216;28;20081;-87
2022/02/08 06:29:23;;;;;;;5.30;2.70;;;3.20;99.90;;;;;;4995626;28;20031;-87
2022/02/08 06:31:51;;;;;;;12.13;3.97;;;3.20;99.90;;;;;;4994252;28;20055;-79
2022/02/08 06:34:20;;;;;;;4.43;3.67;;;3.20;99.90;;;;;;4977036;28;20090;-81
2022/02/08 06:36:47;;;;;;;9.67;3.50;;;3.20;99.90;;;;;;4975345;28;20054;-79
2022/02/08 06:39:17;;;;;;;8.97;3.50;;;3.20;99.90;;;;;;4975747;28;20047;-82
2022/02/08 06:41:47;;;;;;;6.20;3.40;;;3.20;99.90;;;;;;4983752;28;20051;-82
2022/02/08 06:44:13;;;;;;;4.27;3.07;;;3.30;99.90;;;;;;4980979;28;20059;-81
2022/02/08 06:46:39;;;;;;;7.27;4.20;;;3.30;99.90;;;;;;4982495;28;20409;-81
2022/02/08 06:49:05;;;;;;;8.10;4.60;;;3.20;99.90;;;;;;4983132;28;20477;-81
2022/02/08 06:51:31;;;;;;;5.73;5.07;;;3.20;99.90;;;;;;4975298;28;20049;-80
2022/02/08 06:53:59;;;;;;;8.90;4.47;;;3.20;99.90;;;;;;4971430;28;20393;-79
2022/02/08 06:56:25;;;;;;;12.20;4.73;;;3.20;99.90;;;;;;4964528;28;20489;-82
2022/02/08 06:58:58;;;;;;;19.57;6.20;;;3.30;99.90;;;;;;4968717;28;20816;-87
2022/02/08 07:01:28;;;;;;;11.17;4.87;;;3.30;99.90;;;;;;4969558;28;20058;-85
2022/02/08 07:03:55;;;;;;;6.07;4.83;;;3.30;99.90;;;;;;4969676;28;20047;-87
2022/02/08 07:06:22;;;;;;;7.77;5.33;;;3.40;99.90;;;;;;4968132;28;20042;-85
2022/02/08 07:08:49;;;;;;;16.27;5.83;;;3.40;99.90;;;;;;5235122;23;20057;-88
2022/02/08 07:11:16;;;;;;;9.20;5.03;;;3.50;99.90;;;;;;5007704;28;20085;-90
2022/02/08 07:13:44;;;;;;;9.47;5.83;;;3.50;99.90;;;;;;5018424;28;20053;-88
2022/02/08 07:16:11;;;;;;;6.60;4.80;;;3.50;99.90;;;;;;5018221;28;20091;-88
2022/02/08 07:18:38;;;;;;;10.50;5.70;;;3.50;99.90;;;;;;5020838;28;20045;-84
2022/02/08 07:21:04;;;;;;;6.63;4.80;;;3.60;99.90;;;;;;5022947;28;20042;-82
2022/02/08 07:23:31;;;;;;;8.30;4.70;;;3.60;99.90;;;;;;5011210;28;20046;-80
2022/02/08 07:25:58;;;;;;;9.80;4.93;;;3.60;99.90;;;;;;5014629;28;20157;-86
2022/02/08 07:28:26;;;;;;;12.33;4.67;;;3.70;99.90;;;;;;5033918;28;20041;-91
2022/02/08 07:31:00;;;;;;;8.87;4.43;;;3.70;99.90;;;;;;5025134;28;20115;-86
2022/02/08 07:33:27;;;;;;;5.07;3.13;;;3.80;99.90;;;;;;5014955;28;20091;-80
2022/02/08 07:36:00;;;;;;;9.17;5.33;;;3.90;99.90;;;;;;5011599;28;20054;-77
2022/02/08 07:38:31;;;;;;;8.73;5.47;;;4.00;99.90;;;;;;4994576;28;20066;-87
2022/02/08 07:43:44;;;;;;;11.77;5.73;;;4.10;99.90;;;;;;5032001;28;20056;-89
2022/02/08 07:46:10;;;;;;;8.63;5.33;;;4.20;99.90;;;;;;5014502;28;20046;-88
2022/02/08 07:48:37;;;;;;;7.80;4.77;;;4.10;99.90;;;;;;5025918;28;20447;-88
2022/02/08 07:51:03;;;;;;;3.83;2.83;;;4.10;99.90;;;;;;4995533;28;20101;-82
2022/02/08 07:53:30;;;;;;;11.13;5.87;;;4.10;99.90;;;;;;5017349;28;20052;-83
2022/02/08 07:55:57;;;;;;;6.37;5.10;;;4.10;99.90;;;;;;5012812;28;20050;-82
2022/02/08 07:58:24;;;;;;;5.10;4.10;;;4.10;99.90;;;;;;4997776;28;20058;-79
2022/02/08 08:00:51;;;;;;;11.37;4.87;;;4.10;99.90;;;;;;5015591;28;20058;-82
2022/02/08 08:03:21;;;;;;;4.80;3.63;;;4.10;99.90;;;;;;5024484;28;20080;-79
2022/02/08 08:05:48;;;;;;;20.17;12.00;;;4.00;99.90;;;;;;5029390;28;20073;-83
2022/02/08 08:08:14;;;;;;;23.20;12.67;;;4.00;99.90;;;;;;5024520;28;20057;-85
2022/02/08 08:10:45;;;;;;;10.33;5.03;;;4.00;99.90;;;;;;5024056;28;20049;-85
2022/02/08 08:13:16;;;;;;;4.63;3.38;;;4.00;99.90;;;;;;5022246;28;20057;-80
2022/02/08 08:15:47;;;;;;;7.73;4.53;;;4.10;99.90;;;;;;5024758;28;20052;-86
2022/02/08 08:18:25;;;;;;;11.73;4.72;;;4.10;99.90;;;;;;5030053;28;20116;-83
2022/02/08 08:20:53;;;;;;;13.97;6.23;;;4.10;99.90;;;;;;5026942;28;20054;-82
2022/02/08 08:23:19;;;;;;;10.93;5.20;;;4.10;99.90;;;;;;5026347;28;20063;-81
2022/02/08 08:25:49;;;;;;;11.07;5.37;;;4.20;99.90;;;;;;5036756;28;20065;-83
2022/02/08 08:33:45;;;;;;;11.07;4.43;;;4.20;99.90;;;;;;5005435;28;20050;-86
2022/02/08 08:36:21;;;;;;;9.27;4.53;;;4.20;99.90;;;;;;5021296;28;20054;-83
2022/02/08 08:38:49;;;;;;;6.17;4.13;;;4.20;99.90;;;;;;5039256;28;20041;-83
2022/02/08 08:41:26;;;;;;;9.07;5.43;;;4.20;99.90;;;;;;5014937;28;21340;-82
2022/02/08 08:53:01;;;;;;;7.50;4.77;;;4.40;99.90;;;;;;5039562;28;20049;-83
2022/02/08 08:55:34;;;;;;;10.03;5.30;;;4.50;99.90;;;;;;5030986;28;20054;-84
2022/02/08 09:00:42;;;;;;;9.17;4.57;;;4.70;99.90;;;;;;5006462;28;20046;-83
2022/02/08 09:03:09;;;;;;;7.33;4.80;;;4.70;99.90;;;;;;5014030;28;20068;-82
2022/02/08 09:05:39;;;;;;;8.83;4.43;;;4.70;99.90;;;;;;5022462;28;20053;-82
2022/02/08 09:08:07;;;;;;;9.83;7.80;;;4.80;99.90;;;;;;5033829;28;20069;-81
2022/02/08 09:10:49;;;;;;;20.03;8.70;;;4.90;99.90;;;;;;5016636;28;20139;-86
2022/02/08 09:13:35;;;;;;;11.20;6.93;;;4.80;99.90;;;;;;5029116;28;20056;-86
2022/02/08 09:19:09;;;;;;;13.27;8.00;;;4.90;99.90;;;;;;5022731;28;20396;-84
2022/02/08 09:32:40;;;;;;;13.55;5.05;;;5.10;99.90;;;;;;5020512;28;20424;-79
2022/02/08 09:35:08;;;;;;;11.13;5.83;;;5.20;99.90;;;;;;5016135;28;20062;-81
2022/02/08 09:37:36;;;;;;;8.10;5.40;;;5.20;99.90;;;;;;5029245;28;20114;-82
2022/02/08 09:40:04;;;;;;;9.73;4.97;;;5.30;99.90;;;;;;5021043;28;20489;-82
2022/02/08 09:42:31;;;;;;;9.60;5.87;;;5.20;99.90;;;;;;5027099;28;20042;-82
2022/02/08 09:44:58;;;;;;;6.23;4.60;;;5.20;99.90;;;;;;5031194;28;20065;-81
2022/02/08 09:50:14;;;;;;;5.18;3.85;;;5.30;99.90;;;;;;5042597;28;20058;-82
2022/02/08 09:52:51;;;;;;;16.47;7.70;;;5.30;99.90;;;;;;5047440;28;20056;-85
2022/02/08 10:09:53;;;;;;;11.90;6.53;;;5.50;99.90;;;;;;5017060;28;20060;-81
2022/02/08 10:32:18;;;;;;;9.47;4.40;;;5.70;99.90;;;;;;5027737;28;20042;-84
2022/02/08 10:37:50;;;;;;;12.50;5.80;;;5.70;99.90;;;;;;5015052;28;20099;-83
2022/02/08 10:45:56;;;;;;;7.93;5.20;;;5.80;99.90;;;;;;5015387;28;20105;-82
2022/02/08 10:48:23;;;;;;;9.10;5.03;;;5.90;99.90;;;;;;5013544;28;20472;-83
2022/02/08 10:50:59;;;;;;;9.67;5.00;;;5.90;99.90;;;;;;5039431;28;20085;-86
2022/02/08 10:53:37;;;;;;;5.50;4.47;;;5.90;99.90;;;;;;5028568;28;20070;-82
2022/02/08 10:59:20;;;;;;;8.20;4.47;;;6.00;99.90;;;;;;5008351;28;20065;-79
2022/02/08 11:01:55;;;;;;;7.63;4.70;;;6.00;99.90;;;;;;5009517;28;20070;-77
2022/02/08 11:04:35;;;;;;;5.27;3.60;;;6.10;99.90;;;;;;5014282;28;20053;-81
2022/02/08 11:07:14;;;;;;;6.03;4.33;;;6.20;99.90;;;;;;5014540;28;20361;-79
2022/02/08 11:09:48;;;;;;;4.97;3.93;;;6.20;99.90;;;;;;5014101;28;20050;-77
2022/02/08 11:12:34;;;;;;;6.07;3.47;;;6.30;99.90;;;;;;5016822;28;20061;-77
2022/02/08 11:15:13;;;;;;;5.10;3.60;;;6.30;99.90;;;;;;5012302;28;20373;-77
2022/02/08 11:20:39;;;;;;;5.60;4.03;;;6.30;99.90;;;;;;5016059;28;20046;-82
2022/02/08 11:23:13;;;;;;;5.37;4.37;;;6.40;99.90;;;;;;5017294;28;20042;-79
2022/02/08 11:25:43;;;;;;;8.93;4.10;;;6.40;99.90;;;;;;5015729;28;20049;-79
2022/02/08 11:28:16;;;;;;;7.37;4.60;;;6.40;99.90;;;;;;5014752;28;20053;-78
2022/02/08 11:30:59;;;;;;;6.97;4.47;;;6.40;99.90;;;;;;5016230;28;20050;-78
2022/02/08 11:39:26;;;;;;;7.23;3.47;;;6.50;99.90;;;;;;5014675;28;20104;-79
2022/02/08 11:45:11;;;;;;;8.90;7.23;;;6.60;99.90;;;;;;4974400;28;20049;-79
2022/02/08 11:48:11;;;;;;;4.47;2.88;;;6.60;99.90;;;;;;5012146;28;20554;-77
2022/02/08 11:50:47;;;;;;;7.77;4.10;;;6.60;99.90;;;;;;5011510;28;20487;-78
2022/02/08 11:53:26;;;;;;;4.07;3.63;;;6.70;99.90;;;;;;5016762;28;20180;-79
2022/02/08 11:56:23;;;;;;;7.40;4.37;;;6.70;99.90;;;;;;5023648;28;20416;-79
2022/02/08 11:59:02;;;;;;;52.57;31.53;;;6.70;99.90;;;;;;5019841;28;20069;-79
2022/02/08 12:01:46;;;;;;;8.53;5.13;;;6.80;99.90;;;;;;5034115;28;20049;-81
2022/02/08 12:04:32;;;;;;;8.70;5.03;;;6.70;99.90;;;;;;5035036;28;20460;-79
2022/02/08 12:07:06;;;;;;;7.53;4.10;;;6.70;99.90;;;;;;5008241;28;20068;-80
2022/02/08 12:09:41;;;;;;;7.30;4.70;;;6.70;99.90;;;;;;5027932;28;20054;-79
2022/02/08 12:29:52;;;;;;;11.00;7.37;;;6.60;99.90;;;;;;5028499;28;20044;-81
2022/02/08 12:32:54;;;;;;;5.97;4.40;;;6.60;99.90;;;;;;5028888;28;20046;-85
2022/02/08 12:50:34;;;;;;;7.30;5.30;;;6.80;99.90;;;;;;5022086;28;20052;-80
2022/02/08 12:55:50;;;;;;;7.17;5.07;;;6.90;99.90;;;;;;4993329;28;20061;-77
2022/02/08 12:58:34;;;;;;;7.93;5.77;;;6.90;99.90;;;;;;4993506;28;20141;-77
2022/02/08 13:04:09;;;;;;;10.97;6.03;;;7.00;99.90;;;;;;4993296;28;20081;-82
2022/02/08 13:16:19;;;;;;;6.10;4.80;;;7.20;99.90;;;;;;5000924;28;20086;-78
2022/02/08 13:32:49;;;;;;;10.07;5.77;;;7.40;99.90;;;;;;4999671;28;20091;-81
2022/02/08 14:02:58;;;;;;;9.95;6.45;;;8.30;99.90;;;;;;4976932;28;20086;-80
2022/02/08 14:08:17;;;;;;;7.90;5.90;;;8.30;99.90;;;;;;4995717;28;20125;-82
2022/02/08 14:11:05;;;;;;;11.68;6.85;;;8.40;99.90;;;;;;4983961;28;20053;-81
2022/02/08 14:13:50;;;;;;;13.65;6.70;;;8.40;99.90;;;;;;4996865;28;20146;-79
2022/02/08 14:16:32;;;;;;;11.48;6.57;;;8.40;99.90;;;;;;4982177;28;20050;-81
2022/02/08 14:19:18;;;;;;;14.10;7.70;;;8.40;99.90;;;;;;4978742;28;20065;-80
2022/02/08 14:21:55;;;;;;;9.35;5.68;;;8.40;99.90;;;;;;4973713;28;20054;-80
2022/02/08 14:24:34;;;;;;;8.15;5.70;;;8.50;99.90;;;;;;4959366;28;20058;-81
2022/02/08 14:29:50;;;;;;;17.27;6.57;;;8.50;99.90;;;;;;4950242;28;20090;-80
2022/02/08 14:32:23;;;;;;;19.50;7.30;;;8.50;99.90;;;;;;4975846;28;20054;-82
2022/02/08 15:00:14;;;;;;;9.10;6.60;;;8.50;99.90;;;;;;4985131;28;20053;-80
2022/02/08 15:05:50;;;;;;;13.82;7.57;;;8.50;99.90;;;;;;4986090;28;20050;-77
2022/02/08 15:08:24;;;;;;;12.48;6.30;;;8.50;99.90;;;;;;4974525;28;20051;-79
2022/02/08 15:10:53;;;;;;;10.95;6.68;;;8.50;99.90;;;;;;5002144;28;20058;-81
2022/02/08 15:13:23;;;;;;;13.43;6.57;;;8.50;99.90;;;;;;4981488;28;20050;-82
2022/02/08 15:18:48;;;;;;;11.02;6.63;;;8.60;99.90;;;;;;4968860;28;20058;-82
2022/02/08 15:21:19;;;;;;;12.07;6.80;;;8.60;99.90;;;;;;4968292;28;20051;-80
2022/02/08 15:23:45;;;;;;;18.50;6.83;;;8.60;99.90;;;;;;4965054;28;20075;-80
2022/02/08 15:26:11;;;;;;;12.45;6.90;;;8.60;99.90;;;;;;4952653;28;20051;-79
2022/02/08 15:28:38;;;;;;;9.52;6.68;;;8.60;99.90;;;;;;4969096;28;20080;-80
2022/02/08 15:31:05;;;;;;;9.98;6.90;;;8.60;99.90;;;;;;4987260;28;20062;-81
2022/02/08 15:33:31;;;;;;;8.55;6.50;;;8.60;99.90;;;;;;5001096;28;20054;-82
2022/02/08 15:35:57;;;;;;;9.43;6.30;;;8.60;99.90;;;;;;4974108;28;20428;-81
2022/02/08 15:38:28;;;;;;;9.93;6.32;;;8.70;99.90;;;;;;4983999;28;20057;-81
2022/02/08 15:40:54;;;;;;;8.77;5.43;;;8.60;99.90;;;;;;4989253;28;20154;-80
2022/02/08 15:43:21;;;;;;;12.18;6.40;;;8.70;99.90;;;;;;4991490;28;20579;-80
2022/02/08 15:45:51;;;;;;;11.70;6.72;;;8.70;99.90;;;;;;4978567;28;20093;-81
2022/02/08 15:48:21;;;;;;;25.90;15.85;;;8.70;99.90;;;;;;4992122;28;20519;-79
2022/02/08 15:50:57;;;;;;;14.15;10.05;;;8.70;99.90;;;;;;5008740;28;20046;-80
2022/02/08 15:53:46;;;;;;;8.90;5.63;;;8.70;99.90;;;;;;4994276;28;20066;-82
2022/02/08 15:56:28;;;;;;;7.72;5.05;;;8.70;99.90;;;;;;4975051;28;20063;-82
2022/02/08 16:07:09;;;;;;;6.88;5.28;;;8.80;99.90;;;;;;4974766;28;20516;-80
2022/02/08 16:09:40;;;;;;;9.25;4.75;;;8.80;99.90;;;;;;4991943;28;20149;-81
2022/02/08 16:15:13;;;;;;;8.65;4.72;;;8.80;99.90;;;;;;4963959;28;20070;-79
2022/02/08 16:17:53;;;;;;;7.78;5.97;;;8.80;99.90;;;;;;4983350;28;20050;-79
2022/02/08 16:20:22;;;;;;;12.68;7.32;;;8.80;99.90;;;;;;4970650;28;20086;-80
2022/02/08 16:25:55;;;;;;;10.90;6.43;;;8.80;99.90;;;;;;4969496;28;20062;-79
2022/02/08 16:28:40;;;;;;;7.05;4.68;;;8.70;99.90;;;;;;4970088;28;20399;-81
2022/02/08 16:45:59;;;;;;;10.95;5.20;;;8.70;99.90;;;;;;4972407;28;20417;-80
2022/02/08 16:52:00;;;;;;;9.75;4.25;;;8.70;99.90;;;;;;4952117;28;20059;-81
2022/02/08 16:54:09;;;;;;;10.23;6.22;;;8.70;99.90;;;;;;5012486;28;20121;-80
2022/02/08 16:56:54;;;;;;;6.50;4.90;;;8.60;99.90;;;;;;4996848;28;20042;-82
2022/02/08 16:59:25;;;;;;;7.13;5.43;;;8.60;99.90;;;;;;5009694;28;20045;-80
2022/02/08 17:01:52;;;;;;;6.15;4.25;;;8.70;99.90;;;;;;5020027;28;20046;-82
2022/02/08 17:04:19;;;;;;;7.68;5.22;;;8.70;99.90;;;;;;5012673;28;20042;-82
2022/02/08 17:06:45;;;;;;;10.98;5.88;;;8.60;99.90;;;;;;4992390;28;20050;-82
2022/02/08 17:09:14;;;;;;;6.60;4.35;;;8.60;99.90;;;;;;5011372;28;20991;-82
2022/02/08 17:11:45;;;;;;;12.65;5.95;;;8.60;99.90;;;;;;4982545;28;20051;-81
2022/02/08 17:14:21;;;;;;;8.83;6.07;;;8.60;99.90;;;;;;4989696;28;20464;-81
2022/02/08 17:16:57;;;;;;;7.72;5.38;;;8.70;99.90;;;;;;4971442;28;20309;-82
2022/02/08 17:47:03;;;;;;;6.15;4.38;;;8.60;99.90;;;;;;4961726;28;20108;-81
2022/02/08 17:49:29;;;;;;;9.40;6.07;;;8.60;99.90;;;;;;5011433;28;20042;-79
2022/02/08 17:51:55;;;;;;;16.55;8.65;;;8.60;99.90;;;;;;4973151;28;20047;-81
2022/02/08 17:54:37;;;;;;;8.52;5.32;;;8.60;99.90;;;;;;4974594;28;20074;-81
2022/02/08 17:57:06;;;;;;;6.47;4.72;;;8.60;99.90;;;;;;4985876;28;20050;-81
2022/02/08 17:59:35;;;;;;;6.60;5.03;;;8.60;99.90;;;;;;4999702;28;20074;-81
2022/02/08 18:02:01;;;;;;;10.73;5.68;;;8.60;99.90;;;;;;5003640;28;20057;-81
2022/02/08 18:04:28;;;;;;;9.70;5.20;;;8.60;99.90;;;;;;5008714;28;20046;-78
2022/02/08 18:06:55;;;;;;;5.32;4.60;;;8.60;99.90;;;;;;4991621;28;20067;-81
2022/02/08 18:09:24;;;;;;;9.55;5.72;;;8.60;99.90;;;;;;4993600;28;20118;-79
2022/02/08 18:11:50;;;;;;;8.00;5.15;;;8.60;99.90;;;;;;4997558;28;20046;-81
2022/02/08 18:14:17;;;;;;;9.00;5.75;;;8.60;99.90;;;;;;4989868;28;20150;-81
2022/02/08 18:16:50;;;;;;;7.93;4.95;;;8.50;99.90;;;;;;4973981;28;20125;-85
2022/02/08 18:19:18;;;;;;;9.32;5.82;;;8.60;99.90;;;;;;4987699;28;20055;-80
2022/02/08 18:21:51;;;;;;;9.80;6.05;;;8.50;99.90;;;;;;4995685;28;20061;-83
2022/02/08 18:24:49;;;;;;;21.92;15.32;;;8.60;99.90;;;;;;4981997;28;20414;-80
2022/02/08 18:27:33;;;;;;;40.95;21.38;;;8.60;99.90;;;;;;4974066;28;20057;-81
2022/02/08 18:57:47;;;;;;;38.88;18.80;;;8.50;99.90;;;;;;4970689;28;20086;-83
2022/02/08 19:11:45;;;;;;;19.67;10.75;;;8.70;99.90;;;;;;4982887;28;20512;-79
2022/02/08 19:14:40;;;;;;;11.52;6.82;;;8.70;99.90;;;;;;4976510;28;20089;-81
2022/02/08 19:17:18;;;;;;;16.33;7.82;;;8.70;99.90;;;;;;4976099;28;20061;-85
2022/02/08 19:19:50;;;;;;;9.75;6.78;;;8.70;99.90;;;;;;4977899;28;20751;-82
2022/02/08 19:22:16;;;;;;;11.93;8.25;;;8.70;99.90;;;;;;5008437;28;20081;-82
2022/02/08 19:24:43;;;;;;;11.85;5.68;;;8.70;99.90;;;;;;5016345;28;20050;-81
2022/02/08 19:27:10;;;;;;;13.98;6.93;;;8.70;99.90;;;;;;5017290;28;20140;-81
2022/02/08 19:29:38;;;;;;;9.07;7.10;;;8.70;99.90;;;;;;4982420;28;20477;-79
2022/02/08 19:32:07;;;;;;;10.80;6.50;;;8.70;99.90;;;;;;4976456;28;20043;-81
2022/02/08 19:34:34;;;;;;;12.05;7.53;;;8.70;99.90;;;;;;4976398;28;20154;-81
2022/02/08 19:37:05;;;;;;;15.13;10.43;;;8.60;99.90;;;;;;4973770;28;20070;-81
2022/02/08 19:39:31;;;;;;;31.13;18.52;;;8.60;99.90;;;;;;4983323;28;20282;-79
2022/02/08 19:41:59;;;;;;;13.32;7.75;;;8.60;99.90;;;;;;4982860;28;20042;-80
2022/02/08 19:44:25;;;;;;;9.70;6.00;;;8.60;99.90;;;;;;4978383;28;20504;-78
2022/02/08 19:46:51;;;;;;;13.65;8.75;;;8.60;99.90;;;;;;4975635;28;20063;-79
2022/02/08 19:49:17;;;;;;;12.90;6.95;;;8.60;99.90;;;;;;4984883;28;20401;-81
2022/02/08 19:51:44;;;;;;;10.27;6.43;;;8.60;99.90;;;;;;4995013;28;20057;-78
2022/02/08 19:54:17;;;;;;;12.95;7.68;;;8.60;99.90;;;;;;4989054;28;20055;-78
2022/02/08 19:56:48;;;;;;;11.77;7.70;;;8.60;99.90;;;;;;4974020;28;20053;-79
2022/02/08 19:59:20;;;;;;;9.80;6.50;;;8.60;99.90;;;;;;4969195;28;20490;-81
2022/02/08 20:01:52;;;;;;;11.52;6.82;;;8.60;99.90;;;;;;4981875;28;20042;-80
2022/02/08 20:04:21;;;;;;;;;;;8.60;99.90;;;;;;4988963;28;20046;-80